Time;durP1;ratioP1;P1;durP2;ratioP2;P2;SDS_P1;SDS_P2;PMS_P1;PMS_P2;Temp;Humidity;BMP_temperature;BMP_pressure;BME280_temperature;BME280_humidity;BME280_pressure;Samples;Min_cycle;Max_cycle;Signal;HPM_P1;HPM_P2
2021/01/19 00:00:26;;;;;;;13.27;7.80;;;;;;;-4.72;64.99;95457.13;5075719;28;20214;-82
2021/01/19 00:02:52;;;;;;;10.07;6.70;;;;;;;-4.83;65.11;95450.50;5075818;28;20202;-81
2021/01/19 00:05:18;;;;;;;17.73;8.05;;;;;;;-4.82;65.04;95457.31;5075989;28;20202;-82
2021/01/19 00:07:46;;;;;;;15.77;6.88;;;;;;;-4.77;64.92;95450.38;5075918;28;20516;-82
2021/01/19 00:10:13;;;;;;;12.10;8.23;;;;;;;-4.76;64.90;95449.53;5056971;28;20230;-82
2021/01/19 00:12:39;;;;;;;11.77;7.25;;;;;;;-4.71;65.03;95455.41;5075481;28;20205;-82
2021/01/19 00:15:07;;;;;;;9.00;6.55;;;;;;;-4.82;64.94;95447.06;5075716;28;20271;-82
2021/01/19 00:17:34;;;;;;;11.43;6.80;;;;;;;-4.80;64.91;95456.41;5075362;28;20209;-82
2021/01/19 00:20:00;;;;;;;13.38;7.28;;;;;;;-4.74;64.84;95461.41;5056432;28;20202;-81
2021/01/19 00:22:26;;;;;;;11.35;7.10;;;;;;;-4.72;64.77;95458.84;5074790;28;20230;-82
2021/01/19 00:24:54;;;;;;;9.40;6.32;;;;;;;-4.69;64.75;95459.63;5075449;28;20206;-82
2021/01/19 00:27:20;;;;;;;10.50;6.50;;;;;;;-4.70;64.62;95454.53;5074958;28;20206;-82
2021/01/19 00:29:46;;;;;;;10.07;7.43;;;;;;;-4.73;64.72;95462.25;5074595;28;20841;-81
2021/01/19 00:32:12;;;;;;;12.85;6.88;;;;;;;-4.72;64.85;95459.69;5075071;28;20658;-81
2021/01/19 00:34:39;;;;;;;12.85;6.95;;;;;;;-4.73;64.44;95457.97;5075291;28;20198;-82
2021/01/19 00:37:05;;;;;;;22.08;7.32;;;;;;;-4.75;64.64;95451.22;5076879;28;20267;-83
2021/01/19 00:39:32;;;;;;;11.90;5.93;;;;;;;-4.73;64.36;95462.25;5087864;28;20206;-81
2021/01/19 00:41:59;;;;;;;17.95;6.75;;;;;;;-4.71;64.44;95451.13;5079873;28;20292;-82
2021/01/19 00:44:25;;;;;;;17.40;7.30;;;;;;;-4.64;64.37;95451.84;5074650;28;20202;-81
2021/01/19 00:46:52;;;;;;;13.27;7.10;;;;;;;-4.64;64.31;95462.09;5074838;28;20575;-81
2021/01/19 00:49:19;;;;;;;10.57;6.65;;;;;;;-4.66;64.13;95461.28;5074717;28;20214;-81
2021/01/19 00:51:45;;;;;;;12.18;5.78;;;;;;;-4.64;63.78;95456.97;5074422;28;20556;-81
2021/01/19 00:54:12;;;;;;;10.35;6.35;;;;;;;-4.61;63.96;95454.41;5074507;28;20202;-80
2021/01/19 00:56:39;;;;;;;11.32;6.63;;;;;;;-4.69;63.80;95451.94;5074400;28;20620;-82
2021/01/19 00:59:07;;;;;;;42.80;7.63;;;;;;;-4.62;64.07;95459.53;5074824;28;20213;-82
2021/01/19 01:01:34;;;;;;;12.90;6.75;;;;;;;-4.60;63.87;95460.34;5074309;28;20255;-82
2021/01/19 01:04:00;;;;;;;12.30;7.20;;;;;;;-4.55;63.63;95454.28;5074415;28;20202;-81
2021/01/19 01:06:27;;;;;;;11.38;6.70;;;;;;;-4.47;63.27;95460.09;5074185;28;20209;-81
2021/01/19 01:08:53;;;;;;;9.30;6.35;;;;;;;-4.40;62.98;95459.13;5038875;28;20685;-82
2021/01/19 01:11:20;;;;;;;8.88;5.47;;;;;;;-4.37;62.65;95460.78;5074431;28;20634;-82
2021/01/19 01:13:46;;;;;;;12.90;5.90;;;;;;;-4.31;61.96;95459.84;5074447;28;20202;-81
2021/01/19 01:16:14;;;;;;;11.90;8.00;;;;;;;-4.18;61.87;95458.72;5073973;28;20550;-82
2021/01/19 01:18:40;;;;;;;13.45;7.47;;;;;;;-4.15;61.69;95441.56;5074411;28;20202;-82
2021/01/19 01:21:10;;;;;;;7.95;5.72;;;;;;;-4.13;61.61;95447.50;5073782;28;20561;-81
2021/01/19 01:23:36;;;;;;;9.98;5.90;;;;;;;-4.10;61.60;95437.19;5073969;28;20234;-82
2021/01/19 01:26:03;;;;;;;9.20;5.97;;;;;;;-4.07;61.38;95441.41;5073952;28;20719;-82
2021/01/19 01:28:29;;;;;;;6.47;4.93;;;;;;;-4.03;60.97;95445.63;5073680;28;20217;-82
2021/01/19 01:30:56;;;;;;;16.65;7.32;;;;;;;-4.14;61.35;95440.69;5073923;28;20225;-82
2021/01/19 01:33:23;;;;;;;16.58;7.70;;;;;;;-4.15;60.98;95444.13;5073625;28;20198;-82
2021/01/19 01:35:49;;;;;;;14.07;7.68;;;;;;;-4.14;61.58;95444.97;5073660;28;20194;-82
2021/01/19 01:38:16;;;;;;;15.75;8.70;;;;;;;-4.15;61.85;95443.28;5073577;28;20210;-82
2021/01/19 01:40:43;;;;;;;15.70;9.57;;;;;;;-4.26;61.80;95443.50;5073842;28;20209;-81
2021/01/19 01:43:14;;;;;;;8.82;6.35;;;;;;;-4.19;62.16;95439.94;5072898;28;20194;-82
2021/01/19 01:45:41;;;;;;;11.90;7.00;;;;;;;-4.21;62.36;95441.69;5054865;28;20555;-82
2021/01/19 01:48:09;;;;;;;14.60;6.43;;;;;;;-4.16;62.51;95446.72;5073755;28;20198;-81
2021/01/19 01:50:38;;;;;;;10.52;7.32;;;;;;;-4.14;62.22;95442.41;5073285;28;20291;-81
2021/01/19 01:53:04;;;;;;;10.15;6.93;;;;;;;-4.10;61.82;95437.19;5038238;28;20585;-81
2021/01/19 01:55:31;;;;;;;7.35;5.45;;;;;;;-4.10;61.92;95436.34;5073837;28;20545;-82
2021/01/19 01:57:57;;;;;;;12.43;7.03;;;;;;;-4.10;61.75;95437.19;5073501;28;20201;-81
2021/01/19 02:00:24;;;;;;;13.15;7.65;;;;;;;-4.04;61.49;95428.56;5073515;28;20205;-82
2021/01/19 02:02:51;;;;;;;11.90;7.82;;;;;;;-4.02;61.33;95441.34;5073539;28;20202;-81
2021/01/19 02:05:18;;;;;;;20.98;9.30;;;;;;;-3.93;61.78;95446.28;5073398;28;20226;-82
2021/01/19 02:07:56;;;;;;;10.45;6.70;;;;;;;-4.04;61.26;95438.81;5073612;28;20213;-81
2021/01/19 02:10:29;;;;;;;12.70;6.80;;;;;;;-3.97;61.50;95440.38;5073327;28;20264;-82
2021/01/19 02:13:01;;;;;;;10.85;5.68;;;;;;;-3.99;61.09;95431.88;5073607;28;20209;-81
2021/01/19 02:15:38;;;;;;;13.57;7.25;;;;;;;-4.00;61.55;95437.88;5054151;28;20557;-82
2021/01/19 02:18:14;;;;;;;12.05;6.28;;;;;;;-3.96;61.35;95439.50;5073096;28;20209;-81
2021/01/19 02:21:10;;;;;;;9.75;5.75;;;;;;;-4.04;61.29;95436.25;5073424;28;20216;-81
2021/01/19 02:23:49;;;;;;;12.90;6.82;;;;;;;-4.13;61.88;95436.41;5073114;28;20238;-81
2021/01/19 02:27:13;;;;;;;11.90;9.27;;;;;;;-4.04;62.20;95432.84;5073097;28;20612;-81
2021/01/19 02:30:05;;;;;;;15.98;7.40;;;;;;;-3.94;61.75;95434.34;5054239;28;20194;-82
2021/01/19 02:32:41;;;;;;;9.45;5.75;;;;;;;-4.01;61.58;95422.53;5072889;28;20209;-81
2021/01/19 02:35:13;;;;;;;14.40;6.20;;;;;;;-3.99;61.60;95426.75;5073266;28;20213;-81
2021/01/19 02:37:48;;;;;;;9.00;5.20;;;;;;;-4.13;61.94;95421.03;5073230;28;20193;-82
2021/01/19 02:40:18;;;;;;;12.27;6.75;;;;;;;-4.23;62.41;95422.09;5073301;28;20209;-81
2021/01/19 02:43:07;;;;;;;11.32;6.28;;;;;;;-4.27;62.66;95421.31;5073325;28;20213;-81
2021/01/19 02:45:33;;;;;;;9.50;6.78;;;;;;;-4.22;62.85;95421.22;5073497;28;20205;-82
2021/01/19 02:48:00;;;;;;;9.13;6.55;;;;;;;-4.22;62.95;95419.50;5072922;28;20206;-81
2021/01/19 02:50:27;;;;;;;11.35;7.03;;;;;;;-4.27;63.13;95420.47;5072801;28;20224;-82
2021/01/19 02:52:54;;;;;;;11.38;5.72;;;;;;;-4.36;63.30;95424.03;5073738;28;20627;-82
2021/01/19 02:55:20;;;;;;;8.82;5.70;;;;;;;-4.28;63.32;95426.47;5077174;28;20203;-81
2021/01/19 02:58:04;;;;;;;17.08;8.02;;;;;;;-4.22;63.14;95423.78;5077010;28;20639;-81
2021/01/19 03:00:44;;;;;;;9.88;6.00;;;;;;;-4.29;63.50;95428.19;5077112;28;20267;-81
2021/01/19 03:03:13;;;;;;;9.95;6.05;;;;;;;-4.30;63.22;95423.94;5076988;28;20723;-81
2021/01/19 03:05:41;;;;;;;11.57;6.32;;;;;;;-4.19;63.40;95429.69;5076942;28;20206;-82
2021/01/19 03:08:08;;;;;;;13.60;7.93;;;;;;;-4.15;63.20;95435.59;5076560;28;20202;-81
2021/01/19 03:10:38;;;;;;;13.60;7.82;;;;;;;-4.14;63.08;95437.28;5040803;28;20225;-82
2021/01/19 03:13:05;;;;;;;20.77;9.60;;;;;;;-4.24;62.94;95431.50;5076630;28;20716;-81
2021/01/19 03:15:31;;;;;;;11.23;7.65;;;;;;;-4.27;63.79;95425.59;5076581;28;20210;-82
2021/01/19 03:17:57;;;;;;;10.75;6.55;;;;;;;-4.40;64.05;95433.50;5076520;28;20214;-81
2021/01/19 03:20:26;;;;;;;12.45;6.40;;;;;;;-4.45;64.37;95430.19;5076775;28;20308;-82
2021/01/19 03:22:53;;;;;;;17.63;8.27;;;;;;;-4.45;64.18;95443.00;5076301;28;20317;-82
2021/01/19 03:25:19;;;;;;;9.88;6.20;;;;;;;-4.38;64.33;95433.47;5076915;28;20210;-81
2021/01/19 03:27:46;;;;;;;11.82;7.97;;;;;;;-4.42;64.37;95439.53;5076265;28;20226;-82
2021/01/19 03:30:13;;;;;;;9.57;7.72;;;;;;;-4.41;64.38;95436.94;5041333;28;20247;-82
2021/01/19 03:32:40;;;;;;;11.48;7.25;;;;;;;-4.30;64.67;95441.03;5076374;28;20223;-81
2021/01/19 03:35:07;;;;;;;14.63;5.43;;;;;;;-4.31;64.24;95444.47;5076647;28;20240;-82
2021/01/19 03:37:35;;;;;;;6.13;4.30;;;;;;;-4.42;64.56;95429.28;5076107;28;20669;-81
2021/01/19 03:40:02;;;;;;;9.07;6.10;;;;;;;-4.56;65.06;95444.91;5076375;28;20296;-81
2021/01/19 03:42:28;;;;;;;9.70;6.38;;;;;;;-4.52;65.24;95440.56;5076561;28;20248;-84
2021/01/19 03:44:54;;;;;;;6.95;4.82;;;;;;;-4.60;65.56;95445.84;5076580;28;20204;-80
2021/01/19 03:47:21;;;;;;;13.70;6.43;;;;;;;-4.62;65.81;95450.16;5076127;28;20715;-81
2021/01/19 03:49:47;;;;;;;11.82;6.40;;;;;;;-4.64;65.78;95449.28;5076444;28;20194;-81
2021/01/19 03:52:13;;;;;;;13.98;7.35;;;;;;;-4.55;65.84;95450.88;5076195;28;20237;-81
2021/01/19 03:54:41;;;;;;;6.38;4.85;;;;;;;-4.50;65.85;95455.03;5082423;28;20198;-82
2021/01/19 03:57:07;;;;;;;11.68;5.82;;;;;;;-4.42;65.32;95450.63;5081304;28;20695;-81
2021/01/19 03:59:33;;;;;;;16.08;7.68;;;;;;;-4.40;65.22;95456.56;5075538;28;20194;-82
2021/01/19 04:02:00;;;;;;;9.35;6.70;;;;;;;-4.26;65.19;95453.75;5075399;28;20205;-82
2021/01/19 04:04:26;;;;;;;10.98;6.45;;;;;;;-4.30;64.91;95452.13;5074440;28;20660;-82
2021/01/19 04:06:52;;;;;;;12.82;6.95;;;;;;;-4.28;64.97;95450.38;5075444;28;20206;-80
2021/01/19 04:09:19;;;;;;;18.17;9.13;;;;;;;-4.30;64.80;95447.00;5075779;28;20207;-82
2021/01/19 04:11:46;;;;;;;17.88;8.48;;;;;;;-4.30;64.71;95446.16;5075527;28;20226;-81
2021/01/19 04:14:12;;;;;;;10.00;6.00;;;;;;;-4.37;65.07;95441.13;5075231;28;20206;-81
2021/01/19 04:16:39;;;;;;;14.38;10.40;;;;;;;-4.49;65.59;95427.72;5075607;28;20198;-80
2021/01/19 04:19:05;;;;;;;10.73;6.70;;;;;;;-4.53;66.03;95449.13;5075445;28;20213;-83
2021/01/19 04:21:33;;;;;;;6.75;5.50;;;;;;;-4.56;65.66;95446.63;5074928;28;20210;-81
2021/01/19 04:23:59;;;;;;;10.00;5.63;;;;;;;-4.52;65.71;95459.34;5075446;28;20205;-81
2021/01/19 04:26:26;;;;;;;5.93;4.82;;;;;;;-4.51;65.58;95466.16;5075273;28;20201;-82
2021/01/19 04:28:53;;;;;;;6.45;4.35;;;;;;;-4.58;65.89;95461.19;5039807;28;20213;-81
2021/01/19 04:31:19;;;;;;;8.20;4.30;;;;;;;-4.47;66.05;95460.09;5075358;28;20225;-80
2021/01/19 04:33:46;;;;;;;5.85;5.25;;;;;;;-4.40;65.67;95461.69;5075223;28;20216;-81
2021/01/19 04:36:12;;;;;;;13.82;6.35;;;;;;;-4.30;65.61;95469.22;5075119;28;20213;-80
2021/01/19 04:38:38;;;;;;;10.75;7.50;;;;;;;-4.19;65.36;95474.97;5039554;28;20198;-81
2021/01/19 04:41:08;;;;;;;12.82;6.53;;;;;;;-4.18;65.04;95471.53;5074904;28;20206;-80
2021/01/19 04:43:34;;;;;;;10.88;6.43;;;;;;;-4.10;64.76;95464.53;5074957;28;20206;-81
2021/01/19 04:46:03;;;;;;;10.70;7.40;;;;;;;-4.07;64.47;95479.84;5075419;28;20194;-80
2021/01/19 04:48:30;;;;;;;6.82;5.15;;;;;;;-4.03;64.57;95472.97;5075196;28;20198;-81
2021/01/19 04:50:57;;;;;;;11.10;5.90;;;;;;;-4.04;64.62;95481.53;5075099;28;20248;-80
2021/01/19 04:53:26;;;;;;;9.25;5.95;;;;;;;-4.06;64.93;95473.84;5074475;28;20194;-81
2021/01/19 04:55:54;;;;;;;9.45;5.95;;;;;;;-4.03;65.40;95475.53;5074598;28;20210;-81
2021/01/19 04:58:22;;;;;;;9.95;5.95;;;;;;;-3.96;64.80;95482.25;5074853;28;20202;-81
2021/01/19 05:01:06;;;;;;;17.20;8.13;;;;;;;-3.86;64.77;95486.31;5074495;28;20241;-80
2021/01/19 05:03:43;;;;;;;16.08;9.10;;;;;;;-3.94;64.62;95481.31;5074847;28;20225;-81
2021/01/19 05:07:10;;;;;;;10.45;7.70;;;;;;;-3.93;64.58;95480.44;5074540;28;20201;-82
2021/01/19 05:09:46;;;;;;;9.38;6.45;;;;;;;-3.91;64.34;95481.28;5074713;28;20201;-82
2021/01/19 05:12:24;;;;;;;10.02;6.70;;;;;;;-3.88;64.63;95477.78;5074230;28;20221;-81
2021/01/19 05:14:54;;;;;;;8.85;6.13;;;;;;;-3.83;64.89;95484.53;5074675;28;20205;-81
2021/01/19 05:17:24;;;;;;;10.23;5.28;;;;;;;-3.92;64.81;95479.56;5074437;28;20194;-81
2021/01/19 05:19:51;;;;;;;9.63;5.25;;;;;;;-3.93;64.73;95472.75;5074311;28;20682;-80
2021/01/19 05:22:20;;;;;;;9.70;5.68;;;;;;;-3.90;65.30;95477.84;5074057;28;20595;-81
2021/01/19 05:24:48;;;;;;;8.80;5.40;;;;;;;-3.95;65.04;95479.66;5074406;28;20202;-81
2021/01/19 05:27:14;;;;;;;8.20;5.57;;;;;;;-3.89;65.20;95478.66;5074327;28;20198;-81
2021/01/19 05:29:42;;;;;;;9.18;5.95;;;;;;;-3.85;65.33;95485.44;5074177;28;20664;-81
2021/01/19 05:32:09;;;;;;;6.13;5.18;;;;;;;-3.81;64.85;95481.91;5074115;28;20221;-81
2021/01/19 05:34:37;;;;;;;8.82;6.20;;;;;;;-3.69;64.84;95475.72;5074244;28;20205;-82
2021/01/19 05:37:04;;;;;;;12.20;6.82;;;;;;;-3.67;64.51;95479.94;5073944;28;20202;-81
2021/01/19 05:39:30;;;;;;;9.68;6.07;;;;;;;-3.67;65.13;95473.97;5073379;28;20213;-80
2021/01/19 05:41:57;;;;;;;12.98;8.57;;;;;;;-3.69;65.14;95480.84;5073359;28;20218;-83
2021/01/19 05:44:25;;;;;;;13.15;8.60;;;;;;;-3.61;65.47;95474.69;5073098;28;20442;-80
2021/01/19 05:46:59;;;;;;;12.75;7.28;;;;;;;-3.53;65.61;95482.22;5074279;28;20210;-82
2021/01/19 05:49:26;;;;;;;16.92;8.77;;;;;;;-3.54;65.78;95491.63;5073879;28;20198;-83
2021/01/19 05:51:58;;;;;;;11.30;7.50;;;;;;;-3.50;65.31;95488.13;5074145;28;20252;-83
2021/01/19 05:54:27;;;;;;;11.77;6.55;;;;;;;-3.40;65.54;95488.78;5073270;28;20564;-79
2021/01/19 05:57:08;;;;;;;13.18;8.25;;;;;;;-3.32;64.86;95481.75;5073576;28;20194;-79
2021/01/19 05:59:39;;;;;;;10.38;7.55;;;;;;;-3.37;64.83;95483.59;5073801;28;20197;-79
2021/01/19 06:02:10;;;;;;;11.85;6.70;;;;;;;-3.40;64.82;95478.53;5073889;28;20239;-79
2021/01/19 06:04:44;;;;;;;11.13;7.45;;;;;;;-3.43;65.30;95493.97;5073171;28;20206;-79
2021/01/19 06:07:13;;;;;;;10.52;7.68;;;;;;;-3.41;64.84;95492.22;5054703;28;20247;-80
2021/01/19 06:09:40;;;;;;;12.05;6.63;;;;;;;-3.28;65.28;95493.63;5073391;28;20589;-80
2021/01/19 06:12:07;;;;;;;10.52;6.28;;;;;;;-3.25;64.42;95488.44;5073412;28;20230;-79
2021/01/19 06:14:34;;;;;;;13.32;8.27;;;;;;;-3.13;64.64;95487.34;5037793;28;20209;-80
2021/01/19 06:17:08;;;;;;;17.33;9.30;;;;;;;-3.08;64.96;95498.34;5073534;28;20267;-80
2021/01/19 06:19:34;;;;;;;17.92;8.93;;;;;;;-2.93;64.62;95497.13;5073112;28;20654;-80
2021/01/19 06:22:06;;;;;;;15.73;6.88;;;;;;;-2.89;64.65;95503.88;5073274;28;20236;-80
2021/01/19 06:24:35;;;;;;;12.68;6.63;;;;;;;-2.83;65.44;95504.63;5054450;28;20550;-80
2021/01/19 06:27:02;;;;;;;15.85;11.20;;;;;;;-2.65;65.30;95511.03;5073285;28;20201;-81
2021/01/19 06:29:28;;;;;;;27.17;11.90;;;;;;;-2.54;60.86;95518.50;5072538;28;20206;-79
2021/01/19 06:32:00;;;;;;;20.13;12.18;;;;;;;-2.42;58.60;95507.06;5037966;28;20689;-80
2021/01/19 06:34:31;;;;;;;20.80;11.13;;;;;;;-2.34;59.97;95515.41;5073369;28;20233;-80
2021/01/19 06:36:58;;;;;;;22.83;14.00;;;;;;;-2.94;65.74;95513.44;5054518;28;20209;-80
2021/01/19 06:39:46;;;;;;;26.20;14.20;;;;;;;-3.25;64.70;95520.94;5073270;28;20198;-79
2021/01/19 06:42:15;;;;;;;30.85;16.10;;;;;;;-3.65;66.85;95514.09;4991241;28;20209;-79
2021/01/19 06:44:44;;;;;;;22.35;13.52;;;;;;;-3.71;66.57;95521.91;4991433;28;20196;-80
2021/01/19 06:47:12;;;;;;;22.02;12.75;;;;;;;-4.14;68.26;95524.41;4991670;28;20220;-80
2021/01/19 06:49:39;;;;;;;20.75;12.75;;;;;;;-4.12;68.89;95527.78;4991238;28;20208;-80
2021/01/19 06:52:08;;;;;;;25.50;13.02;;;;;;;-4.07;68.68;95531.94;4991406;28;20233;-79
2021/01/19 06:55:22;;;;;;;21.63;10.55;;;;;;;-4.42;70.32;95539.41;4986095;28;20193;-79
2021/01/19 06:58:10;;;;;;;19.05;12.20;;;;;;;-4.63;71.44;95544.88;4938475;29;20218;-79
2021/01/19 07:00:39;;;;;;;23.00;13.05;;;;;;;-4.45;70.96;95536.91;4952578;29;20305;-80
2021/01/19 07:03:18;;;;;;;19.08;11.68;;;;;;;-4.39;70.73;95544.47;4952906;29;20206;-80
2021/01/19 07:05:53;;;;;;;23.50;11.50;;;;;;;-4.14;70.66;95532.94;4917134;29;20710;-79
2021/01/19 07:08:49;;;;;;;26.02;13.98;;;;;;;-4.25;70.62;95541.69;4933337;29;20210;-80
2021/01/19 07:11:47;;;;;;;29.60;13.90;;;;;;;-4.10;70.14;95536.28;4895790;29;20262;-78
2021/01/19 07:14:15;;;;;;;29.05;14.02;;;;;;;-4.12;70.64;95540.59;4848534;29;20212;-81
2021/01/19 07:16:56;;;;;;;22.80;13.07;;;;;;;-3.96;70.17;95544.59;4895204;29;20204;-80
2021/01/19 07:19:32;;;;;;;28.85;13.95;;;;;;;-3.95;69.58;95545.44;4941740;28;20623;-80
2021/01/19 07:22:06;;;;;;;36.80;14.00;;;;;;;-3.80;69.55;95550.25;4971080;28;20623;-80
2021/01/19 07:24:42;;;;;;;25.63;14.13;;;;;;;-3.78;69.22;95549.34;4971131;28;20209;-80
2021/01/19 07:27:11;;;;;;;30.48;13.45;;;;;;;-3.88;69.98;95555.53;4971276;28;20304;-79
2021/01/19 07:29:38;;;;;;;24.08;14.45;;;;;;;-4.00;70.27;95558.34;4971300;28;20253;-80
2021/01/19 07:32:12;;;;;;;22.75;13.07;;;;;;;-4.01;70.78;95563.50;4971378;28;20221;-80
2021/01/19 07:34:40;;;;;;;25.45;13.38;;;;;;;-4.03;69.89;95568.66;4993508;28;20211;-80
2021/01/19 07:37:07;;;;;;;22.23;12.07;;;;;;;-4.17;70.09;95570.59;4977595;28;20208;-79
2021/01/19 07:39:35;;;;;;;31.00;15.00;;;;;;;-4.05;70.84;95565.25;5011815;28;20204;-80
2021/01/19 07:42:12;;;;;;;25.58;13.18;;;;;;;-4.20;70.89;95566.38;5013616;28;20223;-81
2021/01/19 07:44:40;;;;;;;27.77;12.90;;;;;;;-4.00;70.61;95560.91;5013642;28;20226;-80
2021/01/19 07:47:11;;;;;;;38.40;18.70;;;;;;;-3.87;70.41;95551.25;5015412;28;20341;-79
2021/01/19 07:49:38;;;;;;;32.17;16.25;;;;;;;-3.98;70.45;95555.75;5055631;28;20195;-79
2021/01/19 07:52:12;;;;;;;29.17;14.35;;;;;;;-3.93;70.30;95564.19;5055393;28;20235;-81
2021/01/19 07:54:39;;;;;;;33.97;15.50;;;;;;;-3.92;70.15;95561.59;5055243;28;20532;-80
2021/01/19 07:57:14;;;;;;;36.58;16.55;;;;;;;-3.87;70.15;95567.50;5055419;28;20203;-80
2021/01/19 07:59:42;;;;;;;32.00;16.85;;;;;;;-3.66;70.30;95565.41;5055674;28;20202;-79
2021/01/19 08:02:09;;;;;;;28.55;17.15;;;;;;;-3.41;69.68;95573.47;5055562;28;20211;-79
2021/01/19 08:04:37;;;;;;;20.95;14.27;;;;;;;-3.38;69.37;95574.25;5055457;28;20198;-79
2021/01/19 08:07:11;;;;;;;21.85;12.60;;;;;;;-3.26;68.01;95575.72;5055084;28;20203;-79
2021/01/19 08:09:37;;;;;;;30.88;16.13;;;;;;;-3.12;68.02;95572.00;5054815;28;20500;-79
2021/01/19 08:12:06;;;;;;;33.63;16.85;;;;;;;-2.87;67.62;95586.88;5054897;28;20314;-79
2021/01/19 08:14:37;;;;;;;30.67;15.93;;;;;;;-2.74;66.14;95577.19;5054926;28;20607;-79
2021/01/19 08:17:05;;;;;;;27.25;17.90;;;;;;;-2.70;65.32;95581.38;5055095;28;20197;-80
2021/01/19 08:19:36;;;;;;;35.53;20.33;;;;;;;-2.64;65.54;95584.63;5055252;28;20213;-80
2021/01/19 08:22:03;;;;;;;36.95;19.55;;;;;;;-2.63;65.20;95578.63;5054971;28;20260;-80
2021/01/19 08:24:30;;;;;;;41.42;22.30;;;;;;;-2.55;65.56;95594.72;5019957;28;20587;-79
2021/01/19 08:26:57;;;;;;;54.08;24.65;;;;;;;-2.53;65.09;95597.25;5055124;28;20681;-79
2021/01/19 08:29:24;;;;;;;39.05;23.42;;;;;;;-2.50;65.81;95605.72;5054574;28;20198;-79
2021/01/19 08:31:52;;;;;;;38.15;22.25;;;;;;;-2.57;65.88;95596.50;5054984;28;20222;-80
2021/01/19 08:34:20;;;;;;;22.35;15.98;;;;;;;-2.55;65.99;95606.72;5054753;28;20207;-80
2021/01/19 08:36:48;;;;;;;30.15;16.35;;;;;;;-2.53;66.23;95603.25;5055100;28;20210;-79
2021/01/19 08:39:16;;;;;;;32.63;17.60;;;;;;;-2.59;66.22;95607.69;5055038;28;20194;-80
2021/01/19 08:41:44;;;;;;;29.42;15.82;;;;;;;-2.53;65.91;95600.66;5054797;28;20252;-80
2021/01/19 08:44:11;;;;;;;30.45;15.52;;;;;;;-2.41;65.98;95599.53;5054623;28;20547;-79
2021/01/19 08:46:38;;;;;;;31.17;17.27;;;;;;;-2.27;66.07;95602.63;5054384;28;20213;-80
2021/01/19 08:49:06;;;;;;;29.50;18.65;;;;;;;-2.06;65.72;95606.41;5054644;28;20199;-80
2021/01/19 08:51:34;;;;;;;32.95;18.02;;;;;;;-2.05;64.93;95605.50;5053760;28;20237;-80
2021/01/19 08:54:00;;;;;;;34.28;18.55;;;;;;;-1.84;65.24;95600.72;5054297;28;20316;-80
2021/01/19 08:56:28;;;;;;;45.55;17.45;;;;;;;-1.69;64.48;95590.91;5054796;28;20195;-80
2021/01/19 08:58:55;;;;;;;35.17;21.67;;;;;;;-1.60;64.57;95600.94;5054244;28;20202;-80
2021/01/19 09:01:22;;;;;;;30.55;18.88;;;;;;;-1.53;64.45;95593.06;5054130;28;20203;-80
2021/01/19 09:03:55;;;;;;;50.42;21.45;;;;;;;-1.31;63.73;95595.03;5054036;28;20574;-79
2021/01/19 09:06:22;;;;;;;33.35;18.10;;;;;;;-1.22;62.62;95593.91;5053932;28;20592;-80
2021/01/19 09:08:56;;;;;;;28.50;18.08;;;;;;;-1.18;62.24;95577.47;5035714;28;20230;-80
2021/01/19 09:11:27;;;;;;;42.88;21.83;;;;;;;-1.33;63.00;95586.50;5053939;28;20218;-80
2021/01/19 09:14:01;;;;;;;40.33;22.75;;;;;;;-1.10;63.29;95582.44;5053730;28;20260;-80
2021/01/19 09:16:30;;;;;;;38.80;22.00;;;;;;;-1.03;62.99;95578.78;5053915;28;20208;-80
2021/01/19 09:18:57;;;;;;;54.78;22.20;;;;;;;-0.87;63.20;95580.03;5054255;28;20297;-80
2021/01/19 09:21:24;;;;;;;45.72;23.67;;;;;;;-0.75;62.67;95574.53;5053734;28;20214;-80
2021/01/19 09:23:52;;;;;;;65.40;31.88;;;;;;;-0.87;62.97;95564.56;5060319;28;20201;-79
2021/01/19 09:26:18;;;;;;;46.45;27.23;;;;;;;-0.89;62.45;95562.94;5074045;28;20610;-81
2021/01/19 09:28:45;;;;;;;70.22;29.25;;;;;;;-0.90;63.35;95564.66;5073750;28;20654;-80
2021/01/19 09:31:14;;;;;;;47.22;26.30;;;;;;;-0.83;63.12;95560.19;5054846;28;20559;-79
2021/01/19 09:33:41;;;;;;;47.15;25.55;;;;;;;-0.72;63.37;95563.28;5073497;28;20243;-81
2021/01/19 09:36:09;;;;;;;51.72;24.67;;;;;;;-0.73;63.50;95556.44;5073665;28;20209;-80
2021/01/19 09:38:36;;;;;;;51.47;25.25;;;;;;;-0.81;63.92;95561.00;5073884;28;20206;-81
2021/01/19 09:41:05;;;;;;;43.25;23.52;;;;;;;-0.79;63.42;95557.47;5073610;28;20209;-81
2021/01/19 09:43:32;;;;;;;68.20;29.25;;;;;;;-0.76;64.35;95564.25;5073322;28;20217;-81
2021/01/19 09:46:01;;;;;;;47.15;24.90;;;;;;;-0.83;65.28;95552.47;5073725;28;20202;-81
2021/01/19 09:48:30;;;;;;;25.60;15.65;;;;;;;-0.91;64.93;95551.81;5054634;28;20226;-81
2021/01/19 09:51:00;;;;;;;37.83;20.00;;;;;;;-0.94;64.98;95548.47;5073092;28;20680;-80
2021/01/19 09:53:29;;;;;;;40.33;21.80;;;;;;;-1.03;65.17;95553.03;5068384;28;20214;-81
2021/01/19 09:55:56;;;;;;;40.47;21.00;;;;;;;-1.26;65.52;95544.25;5053315;28;20244;-80
2021/01/19 09:58:25;;;;;;;47.92;19.38;;;;;;;-1.18;65.93;95541.44;5053694;28;20206;-80
2021/01/19 10:00:53;;;;;;;36.50;20.73;;;;;;;-1.26;66.42;95549.41;5053346;28;20210;-80
2021/01/19 10:03:20;;;;;;;40.88;22.45;;;;;;;-1.23;66.83;95540.72;5052393;28;20210;-80
2021/01/19 10:05:59;;;;;;;49.55;23.48;;;;;;;-1.08;66.99;95542.03;5053428;28;20203;-79
2021/01/19 10:08:25;;;;;;;43.60;20.50;;;;;;;-1.26;67.16;95541.66;5053051;28;20567;-81
2021/01/19 10:10:52;;;;;;;46.13;21.17;;;;;;;-1.23;68.08;95537.31;5052856;28;20267;-82
2021/01/19 10:13:26;;;;;;;40.03;20.50;;;;;;;-1.27;67.98;95537.41;5052884;28;20206;-80
2021/01/19 10:16:02;;;;;;;43.03;21.38;;;;;;;-1.06;67.78;95540.25;5053306;28;20214;-80
2021/01/19 10:18:30;;;;;;;33.08;19.17;;;;;;;-0.94;67.03;95538.16;5052920;28;20669;-80
2021/01/19 10:20:56;;;;;;;47.97;23.27;;;;;;;-0.71;67.67;95536.63;5052946;28;20659;-80
2021/01/19 10:23:27;;;;;;;43.35;20.55;;;;;;;-0.63;66.90;95522.59;5033826;28;20759;-81
2021/01/19 10:26:12;;;;;;;48.40;19.08;;;;;;;-0.56;67.92;95522.44;5053010;28;20203;-80
2021/01/19 10:28:42;;;;;;;45.70;21.27;;;;;;;-0.36;67.97;95517.47;5053034;28;20244;-79
2021/01/19 10:31:16;;;;;;;22.85;11.05;;;;;;;-0.20;68.81;95510.94;5053391;28;20222;-79
2021/01/19 10:33:56;;;;;;;15.02;9.75;;;;;;;-0.07;69.94;95499.28;5018967;28;20577;-79
2021/01/19 10:36:23;;;;;;;15.77;8.10;;;;;;;-0.01;69.58;95499.09;5053483;28;20203;-82
2021/01/19 10:38:49;;;;;;;17.55;9.40;;;;;;;0.06;69.79;95492.00;5052756;28;20202;-81
2021/01/19 10:41:26;;;;;;;14.68;10.55;;;;;;;0.11;69.87;95489.25;5052744;28;20205;-81
2021/01/19 10:43:55;;;;;;;18.38;11.00;;;;;;;0.20;69.08;95488.94;5052650;28;20264;-80
2021/01/19 10:46:22;;;;;;;26.52;12.00;;;;;;;0.29;69.18;95486.03;5033923;28;20195;-80
2021/01/19 10:49:03;;;;;;;9.80;7.68;;;;;;;0.38;69.18;95484.88;5052764;28;20233;-81
2021/01/19 10:51:30;;;;;;;17.63;9.95;;;;;;;0.42;69.11;95483.84;5052604;28;20230;-79
2021/01/19 10:54:04;;;;;;;19.85;10.32;;;;;;;0.41;69.05;95475.28;5025869;28;20262;-80
2021/01/19 10:56:31;;;;;;;19.30;9.55;;;;;;;0.47;69.71;95476.78;5069433;28;20209;-79
2021/01/19 10:58:58;;;;;;;10.68;6.68;;;;;;;0.52;69.93;95482.63;5052690;28;20207;-79
2021/01/19 11:01:25;;;;;;;17.38;7.93;;;;;;;0.50;68.92;95482.69;5033934;28;20209;-80
2021/01/19 11:03:51;;;;;;;17.30;8.75;;;;;;;0.49;69.19;95482.72;5052756;28;20237;-80
2021/01/19 11:06:18;;;;;;;19.55;10.07;;;;;;;0.56;68.67;95464.38;5052907;28;20206;-80
2021/01/19 11:08:44;;;;;;;12.73;8.38;;;;;;;0.52;68.33;95472.28;5052376;28;20226;-80
2021/01/19 11:11:11;;;;;;;11.70;7.05;;;;;;;0.56;68.57;95469.53;5052602;28;20211;-80
2021/01/19 11:13:37;;;;;;;16.90;10.73;;;;;;;0.53;68.71;95466.22;5052360;28;20208;-79
2021/01/19 11:16:05;;;;;;;12.27;7.75;;;;;;;0.49;69.36;95452.59;5056242;28;20233;-79
2021/01/19 11:18:34;;;;;;;17.70;9.27;;;;;;;0.41;69.49;95459.78;5056280;28;20624;-80
2021/01/19 11:21:01;;;;;;;15.95;8.52;;;;;;;0.49;71.06;95444.84;5056408;28;20264;-79
2021/01/19 11:23:27;;;;;;;14.80;9.48;;;;;;;0.53;69.25;95451.56;5057217;28;20237;-79
2021/01/19 11:25:53;;;;;;;16.40;9.15;;;;;;;0.65;69.40;95442.56;5076353;28;20202;-79
2021/01/19 11:28:20;;;;;;;18.40;11.52;;;;;;;0.80;68.59;95447.13;5076074;28;20207;-79
2021/01/19 11:30:47;;;;;;;14.95;8.45;;;;;;;0.97;68.09;95443.06;5076078;28;20201;-80
2021/01/19 11:33:14;;;;;;;13.18;8.25;;;;;;;1.06;67.96;95443.53;5075590;28;20690;-80
2021/01/19 11:35:40;;;;;;;16.10;9.52;;;;;;;1.14;67.40;95423.41;5075816;28;20212;-79